Time;durP1;ratioP1;P1;durP2;ratioP2;P2;SDS_P1;SDS_P2;PMS_P1;PMS_P2;Temp;Humidity;BMP_temperature;BMP_pressure;BME280_temperature;BME280_humidity;BME280_pressure;Samples;Min_cycle;Max_cycle;Signal;HPM_P1;HPM_P2
2023/05/20 00:01:39;;;;;;;7.68;2.72;;;11.50;99.90;;;-144.05;53.86;56840.34;5072441;28;20054;-76
2023/05/20 00:04:05;;;;;;;5.05;2.60;;;11.40;99.90;;;-144.05;53.96;56816.97;5056206;28;20036;-77
2023/05/20 00:06:31;;;;;;;4.50;2.80;;;11.40;99.90;;;-144.05;53.91;56831.84;5055232;28;20024;-78
2023/05/20 00:08:58;;;;;;;5.20;3.10;;;11.40;99.90;;;-144.05;54.15;56853.09;5074386;28;20062;-78
2023/05/20 00:11:25;;;;;;;8.55;3.15;;;11.30;99.90;;;-144.05;54.66;56850.97;5056742;28;20103;-77
2023/05/20 00:13:50;;;;;;;7.18;2.97;;;11.30;99.90;;;-144.05;55.20;56833.97;5074069;28;20021;-77
2023/05/20 00:16:16;;;;;;;5.03;3.22;;;11.20;99.90;;;-144.05;54.85;56842.47;5072987;28;20043;-77
2023/05/20 00:18:42;;;;;;;8.18;2.97;;;11.20;99.90;;;-144.05;55.33;56825.47;5072524;28;20031;-77
2023/05/20 00:21:08;;;;;;;6.22;3.15;;;11.20;99.90;;;-144.05;55.32;56829.72;5055108;28;20024;-75
2023/05/20 00:23:34;;;;;;;7.60;3.20;;;11.20;99.90;;;-144.05;55.47;56846.72;5073468;28;20479;-77
2023/05/20 00:26:00;;;;;;;7.00;2.97;;;11.10;99.90;;;-144.05;55.41;56812.72;5054969;28;20207;-78
2023/05/20 00:28:25;;;;;;;4.60;2.60;;;11.10;99.90;;;-144.05;55.83;56823.34;5075511;28;20052;-76
2023/05/20 00:30:51;;;;;;;5.07;3.00;;;11.10;99.90;;;-144.05;55.80;56806.34;5077416;28;20547;-78
2023/05/20 00:33:17;;;;;;;7.35;2.97;;;11.00;99.90;;;-144.05;55.75;56821.22;5076932;28;20037;-78
2023/05/20 00:35:43;;;;;;;6.57;2.90;;;11.10;99.90;;;-144.05;55.63;56831.84;5076673;28;20475;-78
2023/05/20 00:38:09;;;;;;;7.32;2.92;;;11.00;99.90;;;-144.05;56.17;56831.84;5059226;28;20079;-77
2023/05/20 00:40:34;;;;;;;6.80;2.67;;;11.00;99.90;;;-144.05;56.06;56810.59;5077104;28;20082;-78
2023/05/20 00:43:00;;;;;;;10.35;3.03;;;10.90;99.90;;;-144.05;55.98;56833.97;5077619;28;20568;-78
2023/05/20 00:45:26;;;;;;;5.10;2.83;;;11.00;99.90;;;-144.05;55.79;56814.84;5077181;28;20097;-78
2023/05/20 00:47:56;;;;;;;5.45;3.40;;;11.00;99.90;;;-144.05;55.32;56821.22;5077142;28;20024;-78
2023/05/20 00:50:22;;;;;;;10.05;3.60;;;11.10;99.90;;;-144.05;55.50;56829.72;5077760;28;20033;-78
2023/05/20 00:52:50;;;;;;;8.38;3.83;;;11.10;99.90;;;-144.05;55.43;56823.34;5076778;28;20047;-78
2023/05/20 00:55:16;;;;;;;7.18;3.28;;;11.10;99.90;;;-144.05;55.09;56819.09;5058481;28;20138;-78
2023/05/20 00:57:42;;;;;;;7.22;3.58;;;11.10;99.90;;;-144.05;55.42;56810.59;5076367;28;20033;-77
2023/05/20 01:00:10;;;;;;;7.90;4.05;;;11.10;99.90;;;-144.05;55.57;56833.97;5075551;28;20031;-78
2023/05/20 01:02:36;;;;;;;7.38;3.50;;;11.10;99.90;;;-144.05;54.99;56829.72;5076268;28;20025;-78
2023/05/20 01:05:02;;;;;;;7.43;3.25;;;11.10;99.90;;;-144.05;55.00;56827.59;5079606;28;20039;-76
2023/05/20 01:07:28;;;;;;;7.60;3.70;;;11.20;99.90;;;-144.05;54.59;56827.59;5075791;28;20480;-77
2023/05/20 01:09:55;;;;;;;7.63;3.13;;;11.30;99.90;;;-144.05;53.94;56819.09;5058779;28;20074;-78
2023/05/20 01:12:34;;;;;;;6.40;3.25;;;11.30;99.90;;;-144.05;53.82;56814.84;5076409;28;20024;-78
2023/05/20 01:15:10;;;;;;;5.28;2.95;;;11.30;99.90;;;-144.05;53.86;56831.84;5076421;28;20056;-78
2023/05/20 01:17:45;;;;;;;5.45;3.00;;;11.40;99.90;;;-144.05;53.57;56810.59;5058139;28;20040;-78
2023/05/20 01:20:14;;;;;;;8.93;3.38;;;11.40;99.90;;;-144.05;53.41;56825.47;5057854;28;20029;-78
2023/05/20 01:22:55;;;;;;;6.75;3.08;;;11.40;99.90;;;-144.05;53.74;56838.22;5057401;28;20060;-77
2023/05/20 01:25:23;;;;;;;3.90;2.80;;;11.30;99.90;;;-144.05;54.24;56833.97;5056779;28;20074;-79
2023/05/20 01:27:51;;;;;;;4.70;2.83;;;11.30;99.90;;;-144.05;54.39;56808.47;5075844;28;20466;-77
2023/05/20 01:30:19;;;;;;;5.70;3.10;;;11.20;99.90;;;-144.05;54.52;56816.97;5074707;28;20482;-76
2023/05/20 01:32:58;;;;;;;6.68;3.00;;;11.20;99.90;;;-144.05;54.42;56827.59;5056320;28;20028;-76
2023/05/20 01:35:25;;;;;;;7.55;3.10;;;11.20;99.90;;;-144.05;54.70;56812.72;5074234;28;20056;-78
2023/05/20 01:37:54;;;;;;;7.35;2.88;;;11.10;99.90;;;-144.05;54.89;56831.84;5074343;28;20059;-76
2023/05/20 01:40:23;;;;;;;6.60;3.17;;;11.10;99.90;;;-144.05;54.82;56810.59;5073867;28;20131;-77
2023/05/20 01:42:51;;;;;;;5.25;3.17;;;11.00;99.90;;;-144.05;54.90;56795.75;5074601;28;20033;-76
2023/05/20 01:45:18;;;;;;;8.90;3.75;;;11.00;99.90;;;-144.05;55.15;56827.59;5057197;28;20027;-78
2023/05/20 01:47:48;;;;;;;8.07;3.20;;;11.00;99.90;;;-144.05;55.33;56802.09;5074436;28;20091;-77
2023/05/20 01:50:14;;;;;;;6.43;3.25;;;10.90;99.90;;;-144.05;55.58;56814.84;5057292;28;20039;-78
2023/05/20 01:52:41;;;;;;;10.13;4.28;;;10.90;99.90;;;-144.05;55.63;56833.97;5075113;28;20025;-78
2023/05/20 01:55:08;;;;;;;5.43;3.70;;;10.90;99.90;;;-144.05;55.50;56816.97;5077613;28;20082;-76
2023/05/20 01:57:34;;;;;;;9.05;3.67;;;10.90;99.90;;;-144.05;55.36;56827.59;5060652;28;20036;-78
2023/05/20 02:00:01;;;;;;;6.75;3.28;;;10.80;99.90;;;-144.05;55.43;56819.09;5076498;28;20056;-78
2023/05/20 02:02:26;;;;;;;6.53;3.15;;;10.80;99.90;;;-144.05;55.88;56838.22;5057548;28;20024;-78
2023/05/20 02:04:53;;;;;;;7.05;3.25;;;10.80;99.90;;;-144.05;55.77;56833.97;5075423;28;20322;-77
2023/05/20 02:07:19;;;;;;;5.82;2.95;;;10.80;99.90;;;-144.05;56.07;56808.47;5074921;28;20464;-77
2023/05/20 02:09:46;;;;;;;6.22;3.10;;;10.80;99.90;;;-144.05;55.65;56806.34;5073767;28;20090;-77
2023/05/20 02:12:15;;;;;;;6.40;3.45;;;10.80;99.90;;;-144.05;55.66;56812.72;5057014;28;20036;-79
2023/05/20 02:14:46;;;;;;;5.20;3.30;;;10.80;99.90;;;-144.05;55.66;56836.09;5075152;28;20028;-78
2023/05/20 02:17:15;;;;;;;7.15;3.15;;;10.80;99.90;;;-144.05;55.47;56823.34;5074384;28;20052;-78
2023/05/20 02:19:42;;;;;;;7.38;2.70;;;10.70;99.90;;;-144.05;55.70;56819.09;5074878;28;20107;-78
2023/05/20 02:22:08;;;;;;;7.65;2.92;;;10.70;99.90;;;-144.05;56.35;56791.50;5057218;28;20035;-78
2023/05/20 02:24:34;;;;;;;7.72;2.90;;;10.70;99.90;;;-144.05;56.17;56838.22;5056958;28;20021;-77
2023/05/20 02:27:00;;;;;;;5.82;2.70;;;10.60;99.90;;;-144.05;56.09;56804.22;5074958;28;20035;-78
2023/05/20 02:29:26;;;;;;;4.72;3.20;;;10.60;99.90;;;-144.05;56.45;56836.09;5057130;28;20477;-78
2023/05/20 02:31:52;;;;;;;3.97;2.55;;;10.50;99.90;;;-144.05;56.76;56827.59;5074254;28;20048;-77
2023/05/20 02:34:19;;;;;;;4.00;2.83;;;10.50;99.90;;;-144.05;56.82;56823.34;5074583;28;20036;-78
2023/05/20 02:36:45;;;;;;;4.60;2.55;;;10.40;99.90;;;-144.05;56.83;56814.84;5075537;28;20063;-79
2023/05/20 02:39:11;;;;;;;4.32;2.65;;;10.40;99.90;;;-144.05;56.90;56833.97;5073855;28;20063;-77
2023/05/20 02:41:37;;;;;;;4.03;2.65;;;10.40;99.90;;;-144.05;57.32;56814.84;5056233;28;20078;-78
2023/05/20 02:44:03;;;;;;;5.53;2.20;;;10.40;99.90;;;-144.05;57.21;56833.97;5074672;28;20147;-78
2023/05/20 02:46:31;;;;;;;4.78;2.60;;;10.40;99.90;;;-144.05;57.16;56827.59;5056193;28;20025;-78
2023/05/20 02:48:57;;;;;;;7.75;3.15;;;10.40;99.90;;;-144.05;57.32;56836.09;5074733;28;20484;-78
2023/05/20 02:51:23;;;;;;;8.02;2.55;;;10.40;99.90;;;-144.05;57.57;56812.72;5074100;28;20032;-78
2023/05/20 02:53:49;;;;;;;4.90;2.78;;;10.30;99.90;;;-144.05;57.53;56842.47;5074340;28;20032;-78
2023/05/20 02:56:15;;;;;;;5.25;3.08;;;10.20;99.90;;;-144.05;58.39;56850.97;5073568;28;20496;-78
2023/05/20 02:58:41;;;;;;;5.00;2.65;;;10.10;99.90;;;-144.05;58.61;56827.59;5074217;28;20033;-78
2023/05/20 03:01:07;;;;;;;6.32;3.28;;;10.10;99.90;;;-144.05;58.84;56838.22;5055705;28;20020;-78
2023/05/20 03:03:33;;;;;;;5.45;2.83;;;10.00;99.90;;;-144.05;59.01;56827.59;5074163;28;20055;-78
2023/05/20 03:05:58;;;;;;;6.80;2.78;;;10.10;99.90;;;-144.05;59.14;56812.72;5075440;28;20028;-78
2023/05/20 03:08:24;;;;;;;4.20;2.70;;;10.00;99.90;;;-144.05;58.92;56827.59;5075301;28;20047;-78
2023/05/20 03:10:50;;;;;;;4.03;2.53;;;10.00;99.90;;;-144.05;59.34;56836.09;5074163;28;20311;-78
2023/05/20 03:13:16;;;;;;;4.47;2.75;;;10.00;99.90;;;-144.05;59.22;56810.59;5075353;28;20033;-78
2023/05/20 03:15:44;;;;;;;5.07;2.95;;;10.00;99.90;;;-144.05;59.24;56825.47;5057205;28;20032;-78
2023/05/20 03:18:11;;;;;;;6.00;2.60;;;10.00;99.90;;;-144.05;59.16;56793.63;5056813;28;20177;-77
2023/05/20 03:20:40;;;;;;;3.50;2.67;;;10.00;99.90;;;-144.05;59.17;56827.59;5074663;28;20088;-77
2023/05/20 03:23:07;;;;;;;6.40;3.55;;;10.00;99.90;;;-144.05;59.51;56844.59;5056371;28;20441;-78
2023/05/20 03:25:33;;;;;;;7.88;4.20;;;10.00;99.90;;;-144.05;59.77;56838.22;5056376;28;20033;-78
2023/05/20 03:27:59;;;;;;;7.70;3.83;;;10.00;99.90;;;-144.05;60.10;56812.72;5074400;28;20042;-78
2023/05/20 03:30:28;;;;;;;8.18;3.97;;;10.00;99.90;;;-144.05;59.53;56827.59;5074107;28;20032;-77
2023/05/20 03:32:58;;;;;;;9.20;3.95;;;10.00;99.90;;;-144.05;59.37;56802.09;5072949;28;20038;-77
2023/05/20 03:35:25;;;;;;;9.48;4.05;;;10.00;99.90;;;-144.05;59.84;56814.84;5073426;28;20059;-79
2023/05/20 03:37:52;;;;;;;7.00;3.55;;;10.00;99.90;;;-144.05;59.70;56812.72;5073696;28;20491;-77
2023/05/20 03:40:19;;;;;;;8.43;3.90;;;10.00;99.90;;;-144.05;59.59;56821.22;5055491;28;20032;-77
2023/05/20 03:42:46;;;;;;;9.35;3.97;;;10.00;99.90;;;-144.05;59.47;56829.72;5054167;28;20032;-77
2023/05/20 03:45:12;;;;;;;6.35;3.88;;;10.00;99.90;;;-144.05;59.53;56827.59;5072869;28;20032;-78
2023/05/20 03:47:38;;;;;;;8.25;3.70;;;10.00;99.90;;;-144.05;59.46;56850.97;5073031;28;20032;-77
2023/05/20 03:50:05;;;;;;;6.85;3.65;;;10.00;99.90;;;-144.05;59.15;56816.97;5055460;28;20057;-77
2023/05/20 03:52:31;;;;;;;8.07;3.60;;;10.00;99.90;;;-144.05;59.51;56833.97;5073374;28;20025;-77
2023/05/20 03:54:57;;;;;;;7.47;3.85;;;10.00;99.90;;;-144.05;59.46;56806.34;5073113;28;20032;-78
2023/05/20 03:57:22;;;;;;;6.97;4.00;;;10.00;99.90;;;-144.05;59.49;56823.34;5055297;28;20032;-78
2023/05/20 03:59:48;;;;;;;6.88;3.67;;;10.00;99.90;;;-144.05;59.08;56806.34;5055348;28;20074;-78
2023/05/20 04:02:15;;;;;;;6.75;3.85;;;10.10;99.90;;;-144.05;59.56;56823.34;5074184;28;20101;-76
2023/05/20 04:07:09;;;;;;;12.02;4.88;;;10.10;99.90;;;-144.05;59.42;56797.88;5054152;28;20057;-76
2023/05/20 04:09:37;;;;;;;10.98;5.22;;;10.10;99.90;;;-144.05;59.23;56819.09;5055083;28;20480;-77
2023/05/20 04:12:06;;;;;;;7.18;4.55;;;10.20;99.90;;;-144.05;59.20;56819.09;5054173;28;20067;-76
2023/05/20 04:14:35;;;;;;;6.82;4.90;;;10.20;99.90;;;-144.05;59.16;56823.34;5055350;28;20021;-76
2023/05/20 04:17:05;;;;;;;6.25;4.55;;;10.20;99.90;;;-144.05;59.06;56853.09;5055204;28;20067;-76
2023/05/20 04:19:31;;;;;;;9.88;5.20;;;10.20;99.90;;;-144.05;58.91;56838.22;5070095;28;20067;-75
2023/05/20 04:21:56;;;;;;;11.00;5.78;;;10.30;99.90;;;-144.05;59.11;56821.22;5055421;28;20021;-76
2023/05/20 04:24:24;;;;;;;9.85;5.22;;;10.30;99.90;;;-144.05;58.95;56806.34;5053910;28;20109;-76
2023/05/20 04:26:51;;;;;;;9.02;5.75;;;10.40;99.90;;;-144.05;58.90;56831.84;5054962;28;20391;-76
2023/05/20 04:29:18;;;;;;;10.02;4.78;;;10.40;99.90;;;-144.05;58.57;56848.84;5069967;28;20060;-75
2023/05/20 04:31:46;;;;;;;7.25;4.38;;;10.50;99.90;;;-144.05;58.31;56823.34;5054663;28;20090;-76
2023/05/20 04:34:13;;;;;;;12.43;4.93;;;10.50;99.90;;;-144.05;58.43;56827.59;5070211;28;20036;-77
2023/05/20 04:36:39;;;;;;;7.60;4.35;;;10.60;99.90;;;-144.05;57.81;56833.97;5054634;28;20028;-76
2023/05/20 04:39:06;;;;;;;9.27;4.93;;;10.70;99.90;;;-144.05;57.98;56810.59;5054797;28;20056;-75
2023/05/20 04:41:34;;;;;;;8.40;4.43;;;10.70;99.90;;;-144.05;57.75;56823.34;5055948;28;20025;-77
2023/05/20 04:44:00;;;;;;;5.43;3.30;;;10.80;99.90;;;-144.05;57.36;56838.22;5060980;28;20028;-77
2023/05/20 04:46:26;;;;;;;7.88;3.75;;;10.90;99.90;;;-144.05;57.32;56806.34;5071864;28;20048;-77
2023/05/20 04:48:52;;;;;;;9.00;3.63;;;11.00;99.90;;;-144.05;57.00;56829.72;5055850;28;20086;-77
2023/05/20 04:51:19;;;;;;;13.32;3.55;;;11.00;99.90;;;-144.05;56.59;56816.97;5070860;28;20447;-77
2023/05/20 04:53:45;;;;;;;8.40;2.88;;;11.10;99.90;;;-144.05;56.36;56823.34;5055578;28;20021;-77
2023/05/20 04:56:12;;;;;;;6.00;3.08;;;11.20;99.90;;;-144.05;56.34;56819.09;5055350;28;20025;-76
2023/05/20 04:58:38;;;;;;;5.72;3.13;;;11.30;99.90;;;-144.05;56.09;56825.47;5069486;28;20036;-75
2023/05/20 05:01:05;;;;;;;5.00;3.10;;;11.40;99.90;;;-144.05;55.19;56806.34;5054326;28;20036;-75
2023/05/20 05:03:31;;;;;;;7.90;2.90;;;11.60;99.90;;;-144.05;54.54;56814.84;5069380;28;20025;-75
2023/05/20 05:05:58;;;;;;;5.60;2.60;;;11.80;99.90;;;-144.05;54.01;56808.47;5054190;28;20040;-74
2023/05/20 05:08:25;;;;;;;4.15;2.70;;;11.90;99.90;;;-144.05;53.64;56814.84;5054202;28;20036;-77
2023/05/20 05:10:51;;;;;;;5.13;2.88;;;12.00;99.90;;;-144.05;52.93;56797.88;5054722;28;20029;-75
2023/05/20 05:13:18;;;;;;;4.72;2.72;;;12.20;99.90;;;-144.05;52.42;56821.22;5053762;28;20036;-75
2023/05/20 05:15:44;;;;;;;5.60;2.70;;;12.40;99.90;;;-144.05;52.31;56814.84;5053928;28;20086;-76
2023/05/20 05:18:10;;;;;;;8.93;3.08;;;12.40;99.90;;;-144.05;52.17;56825.47;5054235;28;20095;-78
2023/05/20 05:20:36;;;;;;;4.32;2.90;;;12.50;99.90;;;-144.05;51.08;56827.59;5054403;28;20036;-76
2023/05/20 05:23:02;;;;;;;7.60;2.90;;;12.70;99.90;;;-144.05;51.03;56797.88;5055772;28;20025;-78
2023/05/20 05:25:28;;;;;;;10.75;3.03;;;12.80;99.90;;;-144.05;50.56;56821.22;5070328;28;20059;-77
2023/05/20 05:27:54;;;;;;;4.82;2.63;;;12.90;99.90;;;-144.05;50.55;56840.34;5055187;28;20029;-77
2023/05/20 05:30:20;;;;;;;6.68;2.70;;;13.10;99.90;;;-144.05;50.02;56814.84;5069456;28;20035;-76
2023/05/20 05:32:47;;;;;;;7.15;3.17;;;13.20;99.90;;;-144.05;49.55;56812.72;5054468;28;20452;-76
2023/05/20 05:35:13;;;;;;;4.80;2.90;;;13.40;99.90;;;-144.05;48.96;56806.34;5053714;28;20032;-76
2023/05/20 05:37:38;;;;;;;7.15;3.75;;;13.50;99.90;;;-144.05;48.98;56799.97;5054037;28;20025;-75
2023/05/20 05:40:07;;;;;;;5.63;3.40;;;13.70;99.90;;;-144.05;48.34;56812.72;5054565;28;20029;-77
2023/05/20 05:42:32;;;;;;;6.50;4.13;;;13.80;99.90;;;-144.05;48.17;56785.13;5054737;28;20021;-77
2023/05/20 05:44:58;;;;;;;6.45;3.15;;;13.90;99.90;;;-144.05;47.92;56816.97;5054058;28;20025;-75
2023/05/20 05:47:28;;;;;;;6.35;3.70;;;14.10;99.90;;;-144.05;47.39;56840.34;5053711;28;20425;-76
2023/05/20 05:49:54;;;;;;;7.47;3.78;;;14.30;99.90;;;-144.05;47.29;56816.97;5055503;28;20100;-79
2023/05/20 05:52:20;;;;;;;12.57;4.63;;;14.50;99.90;;;-144.05;46.84;56816.97;5055553;28;20068;-80
2023/05/20 05:54:46;;;;;;;5.40;3.58;;;14.50;99.90;;;-144.05;47.54;56821.22;5062160;28;20040;-78
2023/05/20 05:57:12;;;;;;;6.30;3.33;;;14.40;99.90;;;-144.05;48.55;56791.50;5055505;28;20039;-76
2023/05/20 05:59:38;;;;;;;6.70;3.80;;;14.20;99.90;;;-144.05;48.68;56823.34;5054256;28;20544;-77
2023/05/20 06:02:05;;;;;;;6.90;3.47;;;14.00;99.90;;;-144.05;49.69;56833.97;5069924;28;20125;-78
2023/05/20 06:04:31;;;;;;;5.97;2.72;;;13.70;99.90;;;-144.05;49.72;56810.59;5054544;28;20041;-77
2023/05/20 06:06:57;;;;;;;7.65;3.60;;;13.70;99.90;;;-144.05;49.89;56814.84;5054891;28;20060;-77
2023/05/20 06:09:23;;;;;;;6.25;3.20;;;13.70;99.90;;;-144.05;50.14;56819.09;5054711;28;20028;-78
2023/05/20 06:11:49;;;;;;;6.55;3.83;;;13.60;99.90;;;-144.05;50.24;56808.47;5054743;28;20065;-78
2023/05/20 06:14:15;;;;;;;4.63;3.13;;;13.70;99.90;;;-144.05;50.00;56821.22;5053569;28;20040;-77
2023/05/20 06:16:40;;;;;;;7.35;3.50;;;13.90;99.90;;;-144.05;48.80;56808.47;5055075;28;20071;-78
2023/05/20 06:19:08;;;;;;;10.50;3.72;;;14.10;99.90;;;-144.05;48.94;56838.22;5053414;28;20079;-78
2023/05/20 06:21:34;;;;;;;6.65;3.28;;;14.20;99.90;;;-144.05;48.51;56821.22;5053561;28;20122;-80
2023/05/20 06:23:59;;;;;;;5.68;2.92;;;14.20;99.90;;;-144.05;48.49;56814.84;5054333;28;20029;-77
2023/05/20 06:26:25;;;;;;;3.75;2.90;;;14.20;99.90;;;-144.05;49.05;56821.22;5054272;28;20025;-80
2023/05/20 06:28:52;;;;;;;8.05;3.08;;;14.20;99.90;;;-144.05;49.04;56844.59;5055151;28;20112;-77
2023/05/20 06:31:18;;;;;;;6.05;3.55;;;14.20;99.90;;;-144.05;49.84;56831.84;5069877;28;20119;-79
2023/05/20 06:33:44;;;;;;;5.68;3.13;;;14.10;99.90;;;-144.05;49.46;56827.59;5055116;28;20037;-77
2023/05/20 06:36:10;;;;;;;6.50;3.63;;;14.10;99.90;;;-144.05;49.48;56857.34;5053035;28;20678;-79
2023/05/20 06:38:37;;;;;;;4.82;3.30;;;14.00;99.90;;;-144.05;49.83;56814.84;5069185;28;20039;-77
2023/05/20 06:41:03;;;;;;;4.55;3.33;;;14.00;99.90;;;-144.05;49.27;56840.34;5070598;28;20032;-80
2023/05/20 06:43:29;;;;;;;6.70;3.35;;;14.10;99.90;;;-144.05;49.45;56831.84;5069574;28;20025;-77
2023/05/20 06:45:54;;;;;;;6.70;3.78;;;14.10;99.90;;;-144.05;49.35;56812.72;5053548;28;20084;-74
2023/05/20 06:48:20;;;;;;;4.68;3.42;;;14.10;99.90;;;-144.05;49.86;56827.59;5054057;28;20397;-79
2023/05/20 06:50:46;;;;;;;6.05;3.50;;;14.10;99.90;;;-144.05;49.81;56833.97;5054148;28;20035;-79
2023/05/20 06:53:12;;;;;;;5.20;3.33;;;14.10;99.90;;;-144.05;50.12;56855.22;5070539;28;20507;-78
2023/05/20 06:55:38;;;;;;;6.30;3.80;;;14.10;99.90;;;-144.05;50.10;56827.59;5053714;28;20033;-76
2023/05/20 06:58:04;;;;;;;4.75;3.45;;;14.00;99.90;;;-144.05;50.54;56831.84;5053478;28;20033;-77
2023/05/20 07:00:29;;;;;;;5.75;3.75;;;13.90;99.90;;;-144.05;51.23;56850.97;5053546;28;20075;-80
2023/05/20 07:02:55;;;;;;;13.00;4.20;;;13.90;99.90;;;-144.05;50.73;56791.50;5056486;28;20045;-78
2023/05/20 07:05:23;;;;;;;5.65;3.95;;;13.90;99.90;;;-144.05;50.80;56810.59;5069103;28;20060;-76
2023/05/20 07:07:49;;;;;;;5.43;3.65;;;13.90;99.90;;;-144.05;50.68;56821.22;5071397;28;20361;-79
2023/05/20 07:10:16;;;;;;;9.15;4.45;;;13.90;99.90;;;-144.05;51.15;56831.84;5055297;28;20035;-78
2023/05/20 07:12:41;;;;;;;5.72;3.63;;;13.90;99.90;;;-144.05;51.19;56814.84;5055123;28;20163;-79
2023/05/20 07:15:08;;;;;;;7.43;4.20;;;14.00;99.90;;;-144.05;51.06;56825.47;5054512;28;20441;-77
2023/05/20 07:17:34;;;;;;;6.38;4.53;;;14.00;99.90;;;-144.05;51.42;56810.59;5069312;28;20108;-78
2023/05/20 07:20:00;;;;;;;6.45;3.97;;;14.00;99.90;;;-144.05;50.27;56802.09;5069228;28;20060;-76
2023/05/20 07:22:26;;;;;;;6.13;3.95;;;14.20;99.90;;;-144.05;50.05;56836.09;5053919;28;20051;-77
2023/05/20 07:24:52;;;;;;;9.27;4.30;;;14.30;99.90;;;-144.05;49.50;56825.47;5053504;28;20029;-76
2023/05/20 07:27:17;;;;;;;5.75;4.05;;;14.40;99.90;;;-144.05;49.52;56806.34;5054059;28;20102;-77
2023/05/20 07:29:43;;;;;;;6.40;4.18;;;14.30;99.90;;;-144.05;49.26;56791.50;5053725;28;20196;-77
2023/05/20 07:32:09;;;;;;;7.18;4.63;;;14.40;99.90;;;-144.05;49.24;56814.84;5069804;28;20116;-79
2023/05/20 07:34:35;;;;;;;5.97;3.92;;;14.40;99.90;;;-144.05;48.77;56831.84;5054945;28;20028;-79
2023/05/20 07:37:01;;;;;;;7.38;4.10;;;14.60;99.90;;;-144.05;48.72;56810.59;5053385;28;20045;-78
2023/05/20 07:39:27;;;;;;;9.27;4.13;;;14.70;99.90;;;-144.05;47.96;56808.47;5053837;28;20029;-76
2023/05/20 07:41:53;;;;;;;6.43;3.97;;;14.80;99.90;;;-144.05;47.92;56816.97;5054216;28;20480;-78
2023/05/20 07:44:20;;;;;;;5.88;4.32;;;14.90;99.90;;;-144.05;47.58;56821.22;5055618;28;20476;-79
2023/05/20 07:46:46;;;;;;;7.93;4.15;;;15.00;99.90;;;-144.05;47.56;56831.84;5054934;28;20029;-77
2023/05/20 07:49:12;;;;;;;9.05;4.88;;;15.00;99.90;;;-144.05;47.43;56814.84;5070557;28;20463;-78
2023/05/20 07:51:38;;;;;;;10.05;5.25;;;15.00;99.90;;;-144.05;47.70;56833.97;5054421;28;20053;-77
2023/05/20 07:54:03;;;;;;;8.85;5.15;;;15.00;99.90;;;-144.05;47.67;56825.47;5052728;28;20055;-77
2023/05/20 07:56:29;;;;;;;7.57;5.38;;;15.10;99.90;;;-144.05;47.18;56857.34;5054869;28;20040;-75
2023/05/20 07:58:59;;;;;;;6.50;4.85;;;15.20;99.90;;;-144.05;46.93;56814.84;5050268;28;20053;-77
2023/05/20 08:01:26;;;;;;;9.05;5.10;;;15.30;99.90;;;-144.05;47.03;56806.34;5051359;28;20029;-75
2023/05/20 08:03:52;;;;;;;7.65;5.50;;;15.40;99.90;;;-144.05;47.67;56814.84;5068259;28;20492;-76
2023/05/20 08:06:19;;;;;;;9.23;5.13;;;15.20;99.90;;;-144.05;47.33;56819.09;5051500;28;20033;-78
2023/05/20 08:08:46;;;;;;;10.85;4.95;;;15.20;99.90;;;-144.05;46.70;56829.72;5053847;28;20530;-76
2023/05/20 08:11:12;;;;;;;11.07;5.68;;;15.30;99.90;;;-144.05;46.42;56816.97;5053084;28;20041;-75
2023/05/20 08:13:39;;;;;;;6.63;5.07;;;15.40;99.90;;;-144.05;46.40;56816.97;5053389;28;20044;-79
2023/05/20 08:16:06;;;;;;;7.78;4.85;;;15.60;99.90;;;-144.05;46.69;56827.59;5053739;28;20024;-78
2023/05/20 08:18:36;;;;;;;7.88;5.53;;;15.70;99.90;;;-144.05;46.45;56806.34;5053584;28;20052;-77
2023/05/20 08:21:03;;;;;;;8.27;4.55;;;15.60;99.90;;;-144.05;46.43;56827.59;5051818;28;20040;-76
2023/05/20 08:23:29;;;;;;;8.13;4.88;;;15.60;99.90;;;-144.05;46.70;56829.72;5052822;28;20033;-78
2023/05/20 08:25:56;;;;;;;8.35;4.90;;;15.60;99.90;;;-144.05;47.19;56810.59;5053232;28;20534;-77
2023/05/20 08:28:22;;;;;;;7.63;5.55;;;15.50;99.90;;;-144.05;47.17;56846.72;5053452;28;20033;-76
2023/05/20 08:30:48;;;;;;;6.88;4.97;;;15.40;99.90;;;-144.05;46.99;56833.97;5053265;28;20464;-77
2023/05/20 08:33:14;;;;;;;8.13;4.97;;;15.60;99.90;;;-144.05;46.43;56844.59;5053372;28;20124;-77
2023/05/20 08:35:40;;;;;;;7.82;5.93;;;15.60;99.90;;;-144.05;46.25;56836.09;5069130;28;20163;-78
2023/05/20 08:38:06;;;;;;;8.48;6.15;;;15.80;99.90;;;-144.05;45.99;56829.72;5053175;28;20043;-76
2023/05/20 08:40:35;;;;;;;9.93;5.68;;;15.90;99.90;;;-144.05;45.83;56808.47;5052629;28;20500;-76
2023/05/20 08:43:01;;;;;;;8.98;5.28;;;15.80;99.90;;;-144.05;45.95;56831.84;5052753;28;20040;-75
2023/05/20 08:45:33;;;;;;;6.47;5.30;;;15.80;99.90;;;-144.05;46.21;56840.34;5051309;28;20119;-76
2023/05/20 08:48:00;;;;;;;8.25;6.18;;;15.70;99.90;;;-144.05;47.04;56840.34;5067338;28;20025;-75
2023/05/20 08:50:26;;;;;;;8.88;5.90;;;15.60;99.90;;;-144.05;46.43;56825.47;5056493;28;20081;-75
2023/05/20 08:52:53;;;;;;;9.95;5.60;;;15.60;99.90;;;-144.05;46.80;56823.34;5058744;28;20029;-76
2023/05/20 08:55:45;;;;;;;9.82;5.90;;;15.50;99.90;;;-144.05;47.33;56842.47;5073137;28;20021;-78
2023/05/20 08:58:14;;;;;;;8.77;5.80;;;15.40;99.90;;;-144.05;47.82;56823.34;5055599;28;20032;-76
2023/05/20 09:00:40;;;;;;;9.57;6.38;;;15.40;99.90;;;-144.05;47.00;56836.09;5070931;28;20021;-77
2023/05/20 09:03:06;;;;;;;9.25;6.25;;;15.50;99.90;;;-144.05;47.30;56838.22;5056015;28;20025;-77
2023/05/20 09:05:33;;;;;;;9.18;6.28;;;15.40;99.90;;;-144.05;48.10;56831.84;5056221;28;20036;-77
2023/05/20 09:08:11;;;;;;;8.35;6.22;;;15.20;99.90;;;-144.05;47.92;56836.09;5056106;28;20423;-75
2023/05/20 09:10:40;;;;;;;8.38;5.70;;;15.20;99.90;;;-144.05;47.56;56819.09;5055311;28;20025;-77
2023/05/20 09:13:08;;;;;;;8.90;6.20;;;15.40;99.90;;;-144.05;47.37;56814.84;5056076;28;20049;-76
2023/05/20 09:15:36;;;;;;;7.78;5.93;;;15.50;99.90;;;-144.05;47.22;56804.22;5055961;28;20025;-77
2023/05/20 09:18:06;;;;;;;8.07;6.13;;;15.60;99.90;;;-144.05;46.96;56829.72;5057202;28;20492;-80
2023/05/20 09:20:36;;;;;;;10.00;6.20;;;15.70;99.90;;;-144.05;46.31;56821.22;5056933;28;20029;-78
2023/05/20 09:23:07;;;;;;;9.10;5.97;;;15.80;99.90;;;-144.05;46.57;56836.09;5061858;28;20021;-78
2023/05/20 09:25:35;;;;;;;10.80;6.72;;;15.80;99.90;;;-144.05;47.67;56819.09;5062933;28;20025;-78
2023/05/20 09:28:04;;;;;;;10.65;5.68;;;15.70;99.90;;;-144.05;47.63;56812.72;5057535;28;20029;-77
2023/05/20 09:30:32;;;;;;;8.07;5.82;;;15.70;99.90;;;-144.05;47.24;56831.84;5057615;28;20033;-77
2023/05/20 09:33:03;;;;;;;9.45;6.43;;;15.80;99.90;;;-144.05;47.07;56836.09;5071621;28;20503;-77
2023/05/20 09:35:29;;;;;;;9.75;6.82;;;15.90;99.90;;;-144.05;46.34;56827.59;5054565;28;20040;-78
2023/05/20 09:37:57;;;;;;;8.73;5.80;;;16.10;99.90;;;-144.05;46.17;56838.22;5056465;28;20024;-77
2023/05/20 09:40:30;;;;;;;10.57;5.93;;;16.20;99.90;;;-144.05;45.81;56829.72;5055283;28;20104;-78
2023/05/20 09:43:03;;;;;;;9.30;5.82;;;16.30;99.90;;;-144.05;46.66;56829.72;5070156;28;20551;-79
2023/05/20 09:45:30;;;;;;;9.90;6.25;;;16.10;99.90;;;-144.05;46.61;56814.84;5054734;28;20029;-77
2023/05/20 09:47:58;;;;;;;8.70;5.85;;;16.20;99.90;;;-144.05;46.59;56833.97;5055793;28;20080;-76
2023/05/20 09:50:27;;;;;;;10.90;5.90;;;16.20;99.90;;;-144.05;46.64;56840.34;5055440;28;20416;-76
2023/05/20 09:52:54;;;;;;;7.72;5.38;;;16.20;99.90;;;-144.05;46.49;56844.59;5056310;28;20104;-79
2023/05/20 09:55:24;;;;;;;9.38;6.28;;;16.20;99.90;;;-144.05;46.73;56831.84;5057101;28;20032;-79
2023/05/20 09:57:52;;;;;;;8.25;6.00;;;16.10;99.90;;;-144.05;46.40;56821.22;5071916;28;20032;-79
2023/05/20 10:00:20;;;;;;;10.43;6.50;;;16.10;99.90;;;-144.05;47.03;56831.84;5054746;28;20101;-79
2023/05/20 10:02:51;;;;;;;8.65;6.03;;;16.00;99.90;;;-144.05;46.78;56831.84;5056525;28;20029;-77
2023/05/20 10:05:38;;;;;;;10.38;6.65;;;16.10;99.90;;;-144.05;47.33;56831.84;5086800;22;20024;-80
2023/05/20 10:08:48;;;;;;;7.53;5.68;;;16.10;99.90;;;-144.05;46.61;56833.97;5062034;28;20111;-77